FZ32 OTHH-OMAA
Flight info
| Callsign | FZ32 |
|---|---|
| Flight time | N/A |
| Altitude | 21000 |
| Route | KUPRO1E KUPRO N300 KAXOB Q415 UKILI UKILI2J |
| Aircraft | B738/M-SDE2E3FGHIRWXY/LB1 |
Departure
| Time | N/A |
|---|---|
| Airport | Hamad International Airport (OTHH) |
Arrival
| Time | 2026-04-30 18:20 |
|---|---|
| Airport | Zayed International Airport (OMAA) |
| Time | Latitude | Longitude | Altitude | Speed | Heading |
|---|---|---|---|---|---|
| 2026-04-30 17:39 | 25.26392 | 52.18034 | 15216 ft | 341 kts | 113° |
| 2026-04-30 17:41 | 25.19926 | 52.38346 | 16880 ft | 355 kts | 112° |
| 2026-04-30 17:42 | 25.18296 | 52.43502 | 16875 ft | 356 kts | 112° |
| 2026-04-30 17:42 | 25.15856 | 52.51241 | 16873 ft | 355 kts | 112° |
| 2026-04-30 17:43 | 25.14231 | 52.56386 | 16874 ft | 355 kts | 112° |
| 2026-04-30 17:44 | 25.11283 | 52.63803 | 16882 ft | 350 kts | 121° |
| 2026-04-30 17:44 | 25.07925 | 52.70979 | 16876 ft | 351 kts | 120° |
| 2026-04-30 17:46 | 25.03825 | 52.83701 | 16870 ft | 356 kts | 106° |
| 2026-04-30 17:47 | 25.01488 | 52.94263 | 16870 ft | 355 kts | 107° |
| 2026-04-30 17:48 | 24.99109 | 53.04739 | 16873 ft | 355 kts | 107° |
| 2026-04-30 17:48 | 24.97543 | 53.11543 | 16867 ft | 355 kts | 107° |
| 2026-04-30 17:49 | 24.95306 | 53.21182 | 16861 ft | 354 kts | 107° |
| 2026-04-30 17:50 | 24.92861 | 53.31702 | 16865 ft | 354 kts | 107° |
| 2026-04-30 17:51 | 24.91029 | 53.39558 | 16848 ft | 352 kts | 107° |
| 2026-04-30 17:52 | 24.87968 | 53.46770 | 16852 ft | 346 kts | 123° |
| 2026-04-30 17:53 | 24.82049 | 53.58330 | 16855 ft | 347 kts | 122° |
| 2026-04-30 17:54 | 24.77360 | 53.67594 | 16842 ft | 347 kts | 122° |
| 2026-04-30 17:55 | 24.72657 | 53.76868 | 16846 ft | 346 kts | 122° |
| 2026-04-30 17:56 | 24.67969 | 53.86101 | 16844 ft | 345 kts | 122° |
| 2026-04-30 17:57 | 24.64457 | 53.93007 | 16842 ft | 345 kts | 122° |
| 2026-04-30 17:58 | 24.62987 | 54.00693 | 16836 ft | 351 kts | 98° |
| 2026-04-30 17:59 | 24.61857 | 54.11359 | 16838 ft | 352 kts | 99° |
| 2026-04-30 18:00 | 24.60643 | 54.22029 | 16833 ft | 352 kts | 99° |
| 2026-04-30 18:00 | 24.59716 | 54.30091 | 16138 ft | 361 kts | 99° |
| 2026-04-30 18:01 | 24.58970 | 54.35539 | 15293 ft | 360 kts | 104° |
| 2026-04-30 18:02 | 24.57258 | 54.43550 | 14182 ft | 357 kts | 105° |
| 2026-04-30 18:02 | 24.55652 | 54.51466 | 13107 ft | 351 kts | 104° |
| 2026-04-30 18:03 | 24.54098 | 54.59218 | 12272 ft | 338 kts | 104° |
| 2026-04-30 18:04 | 24.52626 | 54.66517 | 11666 ft | 319 kts | 104° |
| 2026-04-30 18:05 | 24.49182 | 54.75029 | 10906 ft | 306 kts | 131° |
| 2026-04-30 18:06 | 24.44125 | 54.82070 | 10110 ft | 279 kts | 130° |
| 2026-04-30 18:07 | 24.39568 | 54.88468 | 9314 ft | 259 kts | 130° |
| 2026-04-30 18:08 | 24.36243 | 54.93130 | 8731 ft | 259 kts | 130° |
| 2026-04-30 18:09 | 24.31811 | 54.99338 | 7979 ft | 258 kts | 130° |
| 2026-04-30 18:10 | 24.27446 | 55.05445 | 7222 ft | 255 kts | 130° |
| 2026-04-30 18:11 | 24.21645 | 55.05724 | 6362 ft | 231 kts | 220° |
| 2026-04-30 18:11 | 24.20128 | 55.01078 | 5247 ft | 238 kts | 294° |
| 2026-04-30 18:12 | 24.22991 | 54.96584 | 4278 ft | 246 kts | 302° |
| 2026-04-30 18:13 | 24.24710 | 54.93273 | 3604 ft | 251 kts | 301° |
| 2026-04-30 18:13 | 24.27030 | 54.88864 | 3012 ft | 244 kts | 303° |
| 2026-04-30 18:14 | 24.28918 | 54.85394 | 2977 ft | 210 kts | 308° |
| 2026-04-30 18:15 | 24.31530 | 54.81713 | 2986 ft | 185 kts | 311° |
| 2026-04-30 18:15 | 24.33725 | 54.78619 | 2785 ft | 158 kts | 311° |
| 2026-04-30 18:16 | 24.35228 | 54.76557 | 2966 ft | 182 kts | 311° |
| 2026-04-30 18:16 | 24.36665 | 54.74608 | 2919 ft | 151 kts | 313° |
| 2026-04-30 18:17 | 24.37253 | 54.73683 | 2775 ft | 145 kts | 307° |
| 2026-04-30 18:17 | 24.37826 | 54.72758 | 2512 ft | 151 kts | 310° |
| 2026-04-30 18:17 | 24.39138 | 54.71018 | 1613 ft | 140 kts | 309° |
| 2026-04-30 18:18 | 24.39733 | 54.70147 | 1109 ft | 140 kts | 309° |
| 2026-04-30 18:18 | 24.40299 | 54.69318 | 864 ft | 132 kts | 308° |
| 2026-04-30 18:18 | 24.40859 | 54.68552 | 671 ft | 131 kts | 310° |
| 2026-04-30 18:18 | 24.41417 | 54.67758 | 508 ft | 132 kts | 308° |
| 2026-04-30 18:19 | 24.41991 | 54.66945 | 335 ft | 135 kts | 309° |
| 2026-04-30 18:19 | 24.42543 | 54.66172 | 123 ft | 124 kts | 309° |
| 2026-04-30 18:19 | 24.43075 | 54.65445 | 73 ft | 116 kts | 308° |
| 2026-04-30 18:19 | 24.43480 | 54.64873 | 72 ft | 74 kts | 307° |
| 2026-04-30 18:20 | 24.43671 | 54.64605 | 68 ft | 32 kts | 308° |
| 2026-04-30 18:20 | 24.43800 | 54.64423 | 69 ft | 29 kts | 308° |
| 2026-04-30 18:20 | 24.43920 | 54.64253 | 75 ft | 27 kts | 307° |
| 2026-04-30 18:20 | 24.43952 | 54.64160 | 77 ft | 9 kts | 249° |
| 2026-04-30 18:21 | 24.43908 | 54.64118 | 70 ft | 8 kts | 216° |
| 2026-04-30 18:21 | 24.43861 | 54.64080 | 71 ft | 9 kts | 212° |
| 2026-04-30 18:21 | 24.43803 | 54.64066 | 69 ft | 10 kts | 178° |
| 2026-04-30 18:21 | 24.43735 | 54.64112 | 67 ft | 14 kts | 132° |
| 2026-04-30 18:22 | 24.43663 | 54.64213 | 74 ft | 19 kts | 128° |
| 2026-04-30 18:22 | 24.43437 | 54.64415 | 69 ft | 23 kts | 202° |
| 2026-04-30 18:22 | 24.43327 | 54.64333 | 71 ft | 18 kts | 218° |
| 2026-04-30 18:23 | 24.43286 | 54.64255 | 75 ft | 8 kts | 286° |
| 2026-04-30 18:23 | 24.43309 | 54.64215 | 73 ft | 2 kts | 295° |
| 2026-04-30 18:23 | 24.43302 | 54.64177 | 67 ft | 8 kts | 229° |
| 2026-04-30 18:23 | 24.43250 | 54.64151 | 73 ft | 2 kts | 217° |
| 2026-04-30 18:24 | 24.43223 | 54.64128 | 71 ft | 0 kts | 218° |